Time;durP1;ratioP1;P1;durP2;ratioP2;P2;SDS_P1;SDS_P2;PMS_P1;PMS_P2;Temp;Humidity;BMP_temperature;BMP_pressure;BME280_temperature;BME280_humidity;BME280_pressure;Samples;Min_cycle;Max_cycle;Signal;HPM_P1;HPM_P2
2024/01/10 00:02:28;;;;;;;;;;;;;;;-2.11;40.07;98880.88;5107446;27;19970;-54
2024/01/10 00:05:16;;;;;;;;;;;;;;;-2.11;40.22;98883.53;5103356;28;19989;-59
2024/01/10 00:08:07;;;;;;;;;;;;;;;-2.17;40.22;98879.03;5097302;28;19957;-54
2024/01/10 00:10:58;;;;;;;;;;;;;;;-2.13;40.43;98877.59;5098088;28;19931;-55
2024/01/10 00:13:48;;;;;;;;;;;;;;;-2.12;40.21;98876.56;5095703;28;20434;-53
2024/01/10 00:16:36;;;;;;;;;;;;;;;-2.26;40.77;98877.59;5096795;27;19920;-53
2024/01/10 00:19:24;;;;;;;;;;;;;;;-2.06;39.90;98871.44;5100511;27;19928;-55
2024/01/10 00:22:12;;;;;;;;;;;;;;;-2.02;39.88;98872.69;5098964;28;19947;-54
2024/01/10 00:25:00;;;;;;;;;;;;;;;-1.95;40.18;98876.97;5099643;27;19927;-56
2024/01/10 00:27:48;;;;;;;;;;;;;;;-2.16;39.91;98866.53;5093903;27;19920;-55
2024/01/10 00:30:38;;;;;;;;;;;;;;;-2.14;40.59;98865.28;5106708;27;20268;-55
2024/01/10 00:33:26;;;;;;;;;;;;;;;-1.99;39.34;98861.59;5097731;27;19924;-54
2024/01/10 00:36:14;;;;;;;;;;;;;;;-2.20;39.96;98863.47;5090522;27;20381;-60
2024/01/10 00:39:02;;;;;;;;;;;;;;;-2.14;40.27;98859.97;5096374;28;19990;-55
2024/01/10 00:41:50;;;;;;;;;;;;;;;-1.99;40.24;98861.59;5106462;28;19927;-55
2024/01/10 00:44:39;;;;;;;;;;;;;;;-1.93;39.93;98855.44;5102288;28;20380;-54
2024/01/10 00:47:28;;;;;;;;;;;;;;;-2.19;39.99;98849.13;5102469;28;19920;-55
2024/01/10 00:50:17;;;;;;;;;;;;;;;-2.34;39.79;98853.84;5099155;27;20095;-55
2024/01/10 00:53:05;;;;;;;;;;;;;;;-2.19;40.05;98846.44;5105754;27;19958;-54
2024/01/10 00:55:53;;;;;;;;;;;;;;;-2.32;40.32;98850.97;5095459;28;20040;-54
2024/01/10 00:58:41;;;;;;;;;;;;;;;-2.24;40.93;98840.94;5092424;28;19926;-54
2024/01/10 01:01:29;;;;;;;;;;;;;;;-2.18;40.41;98850.78;5097557;27;19924;-54
2024/01/10 01:04:20;;;;;;;;;;;;;;;-2.32;40.60;98858.97;5093210;28;20050;-53
2024/01/10 01:07:08;;;;;;;;;;;;;;;-2.19;40.08;98849.13;5099046;27;19928;-53
2024/01/10 01:09:56;;;;;;;;;;;;;;;-2.34;40.91;98855.69;5096938;28;20056;-53
2024/01/10 01:12:45;;;;;;;;;;;;;;;-2.55;41.34;98846.06;5096212;28;20007;-56
2024/01/10 01:15:33;;;;;;;;;;;;;;;-2.53;41.84;98855.47;5100577;27;19927;-59
2024/01/10 01:18:21;;;;;;;;;;;;;;;-2.39;40.58;98857.13;5105008;27;19919;-53
2024/01/10 01:21:11;;;;;;;;;;;;;;;-2.42;41.13;98859.38;5101145;27;20521;-53
2024/01/10 01:23:59;;;;;;;;;;;;;;;-2.44;41.01;98861.44;5103037;28;19920;-54
2024/01/10 01:26:47;;;;;;;;;;;;;;;-2.43;41.42;98860.41;5107211;27;19942;-57
2024/01/10 01:29:36;;;;;;;;;;;;;;;-2.41;41.40;98855.69;5107041;27;19981;-55
2024/01/10 01:32:24;;;;;;;;;;;;;;;-2.21;41.45;98856.50;5102295;28;19920;-55
2024/01/10 01:35:13;;;;;;;;;;;;;;;-2.25;41.38;98852.59;5097961;28;19942;-53
2024/01/10 01:38:02;;;;;;;;;;;;;;;-2.26;41.09;98861.63;5102757;28;19920;-54
2024/01/10 01:40:50;;;;;;;;;;;;;;;-2.34;41.36;98859.19;5088883;27;20273;-54
2024/01/10 01:43:38;;;;;;;;;;;;;;;-2.25;41.40;98854.44;5099907;28;19986;-54
2024/01/10 01:46:27;;;;;;;;;;;;;;;-2.18;41.19;98852.63;5098929;28;19924;-57
2024/01/10 01:49:15;;;;;;;;;;;;;;;-2.30;41.51;98849.75;5092384;28;19973;-53
2024/01/10 01:52:04;;;;;;;;;;;;;;;-2.09;41.13;98858.53;5095013;28;19923;-54
2024/01/10 01:54:54;;;;;;;;;;;;;;;-2.35;42.23;98848.72;5097030;28;19920;-55
2024/01/10 01:57:42;;;;;;;;;;;;;;;-2.30;41.53;98855.06;5096793;28;20385;-56
2024/01/10 02:00:31;;;;;;;;;;;;;;;-2.28;41.47;98857.53;5096117;28;19919;-55
2024/01/10 02:03:20;;;;;;;;;;;;;;;-2.17;41.36;98855.06;5103592;28;20012;-59
2024/01/10 02:06:08;;;;;;;;;;;;;;;-2.14;41.97;98859.97;5098506;28;19920;-55
2024/01/10 02:08:56;;;;;;;;;;;;;;;-2.33;41.73;98865.31;5096100;27;19998;-57
2024/01/10 02:11:46;;;;;;;;;;;;;;;-2.44;42.24;98861.44;5100418;28;20101;-53
2024/01/10 02:14:34;;;;;;;;;;;;;;;-2.33;41.93;98855.50;5096579;28;20004;-54
2024/01/10 02:17:22;;;;;;;;;;;;;;;-2.37;42.54;98854.25;5097156;28;19924;-55
2024/01/10 02:20:10;;;;;;;;;;;;;;;-2.19;41.65;98858.94;5100338;28;21044;-55
2024/01/10 02:22:59;;;;;;;;;;;;;;;-2.40;42.11;98854.66;5110371;28;20021;-54
2024/01/10 02:25:48;;;;;;;;;;;;;;;-2.40;42.40;98852.84;5104748;28;19973;-55
2024/01/10 02:28:36;;;;;;;;;;;;;;;-2.44;41.97;98848.13;5099468;28;19976;-55
2024/01/10 02:31:27;;;;;;;;;;;;;;;-2.55;43.33;98856.72;5098657;27;19963;-59
2024/01/10 02:34:15;;;;;;;;;;;;;;;-2.56;42.49;98855.06;5105476;28;19920;-53
2024/01/10 02:37:03;;;;;;;;;;;;;;;-2.50;42.46;98855.09;5101767;27;20873;-53
2024/01/10 02:39:51;;;;;;;;;;;;;;;-2.58;42.68;98852.59;5101626;27;19998;-53
2024/01/10 02:42:43;;;;;;;;;;;;;;;-2.63;43.22;98845.22;5103809;27;19920;-54
2024/01/10 02:45:31;;;;;;;;;;;;;;;-2.68;43.12;98853.00;5104734;27;20007;-53
2024/01/10 02:48:19;;;;;;;;;;;;;;;-2.52;43.22;98846.47;5101726;27;19920;-53
2024/01/10 02:51:07;;;;;;;;;;;;;;;-2.46;42.84;98844.81;5109026;28;20296;-54
2024/01/10 02:53:55;;;;;;;;;;;;;;;-2.49;42.75;98845.25;5104768;28;19920;-54
2024/01/10 02:56:44;;;;;;;;;;;;;;;-2.36;42.59;98853.22;5101190;27;19920;-55
2024/01/10 02:59:33;;;;;;;;;;;;;;;-2.44;42.65;98848.13;5108342;27;19920;-53
2024/01/10 03:02:23;;;;;;;;;;;;;;;-2.75;42.97;98846.88;5106766;28;20011;-55
2024/01/10 03:05:12;;;;;;;;;;;;;;;-2.55;42.91;98835.44;5101861;27;20525;-54
2024/01/10 03:08:02;;;;;;;;;;;;;;;-2.50;43.13;98843.63;5104156;28;19924;-54
2024/01/10 03:10:50;;;;;;;;;;;;;;;-2.46;42.70;98834.19;5104820;28;19920;-55
2024/01/10 03:13:38;;;;;;;;;;;;;;;-2.54;42.79;98837.88;5100034;27;19924;-56
2024/01/10 03:16:28;;;;;;;;;;;;;;;-2.38;42.94;98839.31;5097348;28;19927;-53
2024/01/10 03:19:16;;;;;;;;;;;;;;;-2.40;42.41;98841.34;5096835;27;19938;-56
2024/01/10 03:22:04;;;;;;;;;;;;;;;-2.33;43.21;98844.03;5102111;28;19955;-55
2024/01/10 03:24:52;;;;;;;;;;;;;;;-2.36;42.96;98842.59;5106937;27;19920;-55
2024/01/10 03:27:40;;;;;;;;;;;;;;;-2.43;42.87;98849.75;5096985;27;19927;-55
2024/01/10 03:30:29;;;;;;;;;;;;;;;-2.67;42.81;98838.66;5102724;27;19928;-53
2024/01/10 03:33:18;;;;;;;;;;;;;;;-2.53;43.10;98838.69;5100110;27;19930;-54
2024/01/10 03:36:07;;;;;;;;;;;;;;;-2.57;43.79;98837.47;5099202;28;19924;-54
2024/01/10 03:38:55;;;;;;;;;;;;;;;-2.58;43.76;98836.66;5100604;27;19921;-54
2024/01/10 03:41:43;;;;;;;;;;;;;;;-2.52;43.71;98848.31;5092785;28;20388;-54
2024/01/10 03:44:31;;;;;;;;;;;;;;;-2.48;42.96;98844.22;5108392;28;19926;-54
2024/01/10 03:47:19;;;;;;;;;;;;;;;-2.66;43.81;98848.31;5103312;28;19926;-53
2024/01/10 03:50:09;;;;;;;;;;;;;;;-2.33;42.88;98849.34;5100875;28;20019;-58
2024/01/10 03:52:57;;;;;;;;;;;;;;;-2.60;43.64;98843.22;5109594;28;19931;-54
2024/01/10 03:55:45;;;;;;;;;;;;;;;-2.64;43.98;98846.25;5108367;28;19931;-55
2024/01/10 03:58:33;;;;;;;;;;;;;;;-2.63;43.54;98839.91;5103199;28;19927;-61
2024/01/10 04:01:23;;;;;;;;;;;;;;;-2.79;43.70;98839.50;5105294;28;20621;-53
2024/01/10 04:04:11;;;;;;;;;;;;;;;-2.94;44.69;98837.81;5102276;28;19926;-54
2024/01/10 04:07:00;;;;;;;;;;;;;;;-2.94;44.04;98837.81;5103234;28;19920;-54
2024/01/10 04:09:48;;;;;;;;;;;;;;;-2.91;43.95;98837.44;5097147;28;20391;-53
2024/01/10 04:12:36;;;;;;;;;;;;;;;-2.71;43.86;98841.97;5098654;28;19924;-59
2024/01/10 04:15:24;;;;;;;;;;;;;;;-2.71;43.38;98836.66;5093983;27;19919;-52
2024/01/10 04:18:12;;;;;;;;;;;;;;;-2.54;43.63;98842.38;5099182;28;19919;-53
2024/01/10 04:21:04;;;;;;;;;;;;;;;-2.61;43.63;98838.88;5104791;27;19924;-53
2024/01/10 04:23:53;;;;;;;;;;;;;;;-2.49;43.01;98834.63;5104926;27;20519;-55
2024/01/10 04:26:41;;;;;;;;;;;;;;;-2.67;43.78;98838.66;5098385;27;20049;-53
2024/01/10 04:29:29;;;;;;;;;;;;;;;-2.66;43.49;98840.34;5105150;27;19920;-54
2024/01/10 04:32:17;;;;;;;;;;;;;;;-2.95;43.81;98830.06;5106374;27;19928;-53
2024/01/10 04:35:06;;;;;;;;;;;;;;;-2.96;44.22;98833.75;5102177;27;19977;-53
2024/01/10 04:37:55;;;;;;;;;;;;;;;-2.82;43.45;98827.44;5099041;27;20368;-53
2024/01/10 04:40:44;;;;;;;;;;;;;;;-2.86;44.82;98836.00;5102648;27;20010;-53
2024/01/10 04:43:32;;;;;;;;;;;;;;;-2.79;44.10;98834.16;5108148;27;19924;-55
2024/01/10 04:46:20;;;;;;;;;;;;;;;-2.77;44.23;98827.66;5111988;27;19942;-56
2024/01/10 04:49:11;;;;;;;;;;;;;;;-2.71;43.94;98826.81;5102334;27;19920;-53
2024/01/10 04:51:59;;;;;;;;;;;;;;;-2.84;44.06;98831.31;5107859;27;19924;-54
2024/01/10 04:54:48;;;;;;;;;;;;;;;-2.90;44.23;98830.25;5110298;27;19954;-55
2024/01/10 04:57:37;;;;;;;;;;;;;;;-2.84;43.78;98829.47;5114092;27;19972;-60
2024/01/10 05:00:25;;;;;;;;;;;;;;;-2.74;43.70;98827.22;5113850;27;19927;-58
2024/01/10 05:03:14;;;;;;;;;;;;;;;-2.80;43.86;98836.00;5105446;27;20069;-53
2024/01/10 05:06:02;;;;;;;;;;;;;;;-2.81;44.65;98831.72;5110093;27;19920;-55
2024/01/10 05:08:50;;;;;;;;;;;;;;;-2.80;43.95;98829.88;5091921;28;19927;-54
2024/01/10 05:11:38;;;;;;;;;;;;;;;-2.68;44.12;98837.03;5111678;27;19923;-54
2024/01/10 05:14:30;;;;;;;;;;;;;;;-2.74;44.29;98829.88;5105035;27;19924;-54
2024/01/10 05:17:18;;;;;;;;;;;;;;;-2.68;43.89;98826.41;5102473;27;20387;-54
2024/01/10 05:20:07;;;;;;;;;;;;;;;-2.76;43.59;98831.94;5110206;27;19920;-53
2024/01/10 05:22:58;;;;;;;;;;;;;;;-2.81;44.31;98822.94;5104881;27;19935;-54
2024/01/10 05:25:46;;;;;;;;;;;;;;;-2.70;43.78;98831.13;5106057;28;19919;-55
2024/01/10 05:28:34;;;;;;;;;;;;;;;-2.87;43.88;98827.22;5096891;27;20385;-54
2024/01/10 05:31:24;;;;;;;;;;;;;;;-2.83;43.43;98830.28;5102000;27;19920;-54
2024/01/10 05:34:13;;;;;;;;;;;;;;;-2.65;44.07;98828.66;5106383;27;19920;-54
2024/01/10 05:37:01;;;;;;;;;;;;;;;-2.78;43.74;98825.97;5103318;28;20026;-55
2024/01/10 05:39:49;;;;;;;;;;;;;;;-2.63;43.30;98825.78;5107508;28;19920;-53
2024/01/10 05:42:38;;;;;;;;;;;;;;;-2.72;43.86;98825.16;5109992;28;19919;-54
2024/01/10 05:45:26;;;;;;;;;;;;;;;-2.83;43.86;98831.09;5100799;27;19924;-53
2024/01/10 05:48:17;;;;;;;;;;;;;;;-2.54;43.76;98829.91;5100043;27;19919;-54
2024/01/10 05:51:05;;;;;;;;;;;;;;;-2.54;43.40;98831.75;5100243;28;19924;-58
2024/01/10 05:53:53;;;;;;;;;;;;;;;-2.71;43.74;98832.16;5099271;28;19919;-54
2024/01/10 05:56:41;;;;;;;;;;;;;;;-2.76;43.45;98831.94;5101375;28;19927;-55
2024/01/10 05:59:30;;;;;;;;;;;;;;;-2.46;42.97;98831.53;5094699;28;19920;-54
2024/01/10 06:02:18;;;;;;;;;;;;;;;-2.54;43.09;98823.75;5093401;28;19924;-54
2024/01/10 06:05:08;;;;;;;;;;;;;;;-2.45;43.25;98835.81;5097175;28;19927;-55
2024/01/10 06:07:57;;;;;;;;;;;;;;;-2.48;43.32;98833.59;5101232;28;19960;-58
2024/01/10 06:10:45;;;;;;;;;;;;;;;-2.49;43.33;98829.28;5104273;28;19976;-56
2024/01/10 06:13:33;;;;;;;;;;;;;;;-2.29;43.24;98834.59;5104364;28;19927;-55
2024/01/10 06:16:29;;;;;;;;;;;;;;;-2.28;43.78;98831.75;5102290;28;19923;-56
2024/01/10 06:19:18;;;;;;;;;;;;;;;-2.42;43.63;98832.75;5108805;27;20020;-55
2024/01/10 06:22:07;;;;;;;;;;;;;;;-2.35;43.99;98838.88;5099448;28;20034;-55
2024/01/10 06:24:55;;;;;;;;;;;;;;;-2.40;44.17;98844.00;5106300;28;20638;-54
2024/01/10 06:27:43;;;;;;;;;;;;;;;-2.44;44.44;98842.81;5099259;28;20332;-58
2024/01/10 06:30:31;;;;;;;;;;;;;;;-2.26;43.91;98848.31;5089767;28;20547;-54
2024/01/10 06:33:20;;;;;;;;;;;;;;;-2.09;43.65;98848.69;5103778;28;19920;-55
2024/01/10 06:36:11;;;;;;;;;;;;;;;-1.99;43.14;98853.63;5100325;28;19920;-55
2024/01/10 06:39:01;;;;;;;;;;;;;;;-2.01;43.21;98858.34;5106368;28;20280;-54
2024/01/10 06:41:49;;;;;;;;;;;;;;;-1.95;42.61;98863.66;5108795;28;20007;-54
2024/01/10 06:44:37;;;;;;;;;;;;;;;-1.83;42.76;98858.50;5099710;28;20288;-55
2024/01/10 06:47:25;;;;;;;;;;;;;;;-2.06;43.63;98860.81;5098858;28;19924;-55
2024/01/10 06:50:14;;;;;;;;;;;;;;;-2.11;43.89;98864.91;5108441;28;19927;-54
2024/01/10 06:53:02;;;;;;;;;;;;;;;-2.14;43.20;98865.28;5108019;28;20434;-55
2024/01/10 06:55:52;;;;;;;;;;;;;;;-1.94;43.46;98861.78;5093706;28;19995;-54
2024/01/10 06:58:40;;;;;;;;;;;;;;;-1.93;43.29;98863.44;5102135;28;20237;-54
2024/01/10 07:01:28;;;;;;;;;;;;;;;-2.16;43.60;98861.22;5105148;28;19927;-55
2024/01/10 07:04:17;;;;;;;;;;;;;;;-2.25;43.93;98868.56;5100528;28;19926;-55
2024/01/10 07:07:08;;;;;;;;;;;;;;;-2.40;43.58;98866.16;5100291;28;19930;-55
2024/01/10 07:09:57;;;;;;;;;;;;;;;-2.46;44.43;98871.44;5091211;28;20392;-58
2024/01/10 07:12:46;;;;;;;;;;;;;;;-2.11;43.47;98870.22;5096587;28;20383;-54
2024/01/10 07:15:35;;;;;;;;;;;;;;;-2.03;43.54;98871.03;5102908;28;19924;-55
2024/01/10 07:18:23;;;;;;;;;;;;;;;-2.02;43.77;98878.00;5095143;28;19920;-55
2024/01/10 07:21:11;;;;;;;;;;;;;;;-1.97;43.46;98886.16;5099707;27;19927;-55
2024/01/10 07:23:59;;;;;;;;;;;;;;;-2.05;43.91;98884.53;5100026;28;19930;-54
2024/01/10 07:26:47;;;;;;;;;;;;;;;-2.24;43.79;98882.69;5096825;28;19924;-55
2024/01/10 07:29:37;;;;;;;;;;;;;;;-2.20;44.52;98889.25;5109429;28;20311;-56
2024/01/10 07:32:25;;;;;;;;;;;;;;;-2.24;44.86;98886.19;5101448;27;19932;-59
2024/01/10 07:35:14;;;;;;;;;;;;;;;-2.15;44.99;98889.47;5107627;28;19919;-56
2024/01/10 07:38:02;;;;;;;;;;;;;;;-2.22;44.85;98891.31;5102056;28;19924;-55
2024/01/10 07:40:51;;;;;;;;;;;;;;;-2.03;44.52;98897.66;5110322;27;20006;-54
2024/01/10 07:43:39;;;;;;;;;;;;;;;-1.88;43.88;98895.59;5104932;27;19919;-54
2024/01/10 07:46:29;;;;;;;;;;;;;;;-2.28;44.07;98900.13;5105946;28;19993;-55
2024/01/10 07:49:17;;;;;;;;;;;;;;;-2.17;45.04;98897.66;5100999;28;19923;-55
2024/01/10 07:52:05;;;;;;;;;;;;;;;-2.16;44.97;98899.31;5102776;28;19919;-55
2024/01/10 07:54:53;;;;;;;;;;;;;;;-2.77;45.12;98896.78;5109932;28;20272;-55
2024/01/10 07:57:42;;;;;;;;;;;;;;;-2.72;45.86;98891.66;5088972;28;19920;-56
2024/01/10 08:00:30;;;;;;;;;;;;;;;-2.25;44.75;98900.53;5108472;28;19924;-55
2024/01/10 08:03:19;;;;;;;;;;;;;;;-1.91;43.99;98906.69;5104399;27;20492;-55
2024/01/10 08:06:08;;;;;;;;;;;;;;;-1.99;44.02;98917.53;5106362;27;20018;-54
2024/01/10 08:09:05;;;;;;;;;;;;;;;-1.66;43.43;98915.63;5107034;28;19923;-56
2024/01/10 08:11:56;;;;;;;;;;;;;;;-1.64;43.59;98921.59;5109213;28;19920;-55
2024/01/10 08:14:45;;;;;;;;;;;;;;;-1.34;42.76;98915.75;5101679;28;20073;-55
2024/01/10 08:17:34;;;;;;;;;;;;;;;-1.64;43.37;98918.94;5106274;27;19924;-55
2024/01/10 08:20:25;;;;;;;;;;;;;;;-1.72;43.63;98916.47;5112125;27;19978;-55
2024/01/10 08:23:14;;;;;;;;;;;;;;;-1.56;43.32;98919.72;5105232;27;19919;-55
2024/01/10 08:26:02;;;;;;;;;;;;;;;-1.59;43.73;98916.47;5104885;27;20279;-55
2024/01/10 08:28:50;;;;;;;;;;;;;;;-1.75;44.54;98921.41;5097677;28;19927;-55
2024/01/10 08:31:38;;;;;;;;;;;;;;;-1.82;44.77;98926.72;5093761;28;19920;-55
2024/01/10 08:34:27;;;;;;;;;;;;;;;-2.09;44.92;98927.75;5095681;28;19920;-55
2024/01/10 08:37:17;;;;;;;;;;;;;;;-1.87;44.41;98918.53;5102002;28;19926;-54
2024/01/10 08:40:11;;;;;;;;;;;;;;;-1.97;44.68;98920.78;5099664;28;19935;-55
2024/01/10 08:42:59;;;;;;;;;;;;;;;-2.21;44.52;98927.56;5103225;28;20054;-54
2024/01/10 08:45:47;;;;;;;;;;;;;;;-2.09;45.35;98925.09;5100813;27;19923;-55
2024/01/10 08:48:36;;;;;;;;;;;;;;;-2.16;44.21;98930.44;5091682;28;19920;-56
2024/01/10 08:51:27;;;;;;;;;;;;;;;-2.40;45.07;98934.50;5100744;28;19920;-54
2024/01/10 08:54:19;;;;;;;;;;;;;;;-2.14;45.12;98933.69;5088158;28;19920;-55
2024/01/10 08:57:10;;;;;;;;;;;;;;;-1.97;45.31;98928.78;5109492;27;22888;-56
2024/01/10 08:59:58;;;;;;;;;;;;;;;-2.02;44.71;98931.25;5104871;27;20476;-55
2024/01/10 09:02:46;;;;;;;;;;;;;;;-2.05;44.64;98934.31;5100732;27;19924;-57
2024/01/10 09:05:34;;;;;;;;;;;;;;;-2.09;44.63;98938.41;5100563;27;19920;-54
2024/01/10 09:08:23;;;;;;;;;;;;;;;-1.78;43.73;98937.78;5108422;27;20396;-56
2024/01/10 09:11:12;;;;;;;;;;;;;;;-1.79;43.90;98941.50;5102101;28;19969;-55
2024/01/10 09:14:00;;;;;;;;;;;;;;;-1.92;44.41;98939.63;5100998;28;20277;-56
2024/01/10 09:16:48;;;;;;;;;;;;;;;-1.96;44.57;98941.09;5095721;27;19924;-54
2024/01/10 09:19:36;;;;;;;;;;;;;;;-1.87;44.48;98939.84;5104911;28;19920;-56
2024/01/10 09:22:24;;;;;;;;;;;;;;;-1.99;44.45;98939.63;5104626;28;19920;-56
2024/01/10 09:25:13;;;;;;;;;;;;;;;-1.91;44.47;98939.44;5098973;28;19970;-55
2024/01/10 09:28:02;;;;;;;;;;;;;;;-2.04;44.82;98949.28;5097121;28;20005;-55
2024/01/10 09:30:51;;;;;;;;;;;;;;;-1.82;44.87;98947.22;5095172;28;19920;-55
2024/01/10 09:33:39;;;;;;;;;;;;;;;-1.75;44.89;98948.88;5098630;28;19920;-54
2024/01/10 09:36:28;;;;;;;;;;;;;;;-1.92;45.77;98953.78;5095564;28;20010;-56
2024/01/10 09:39:16;;;;;;;;;;;;;;;-1.72;44.95;98959.09;5098833;28;19926;-54
2024/01/10 09:42:06;;;;;;;;;;;;;;;-1.72;45.17;98956.44;5097047;27;20006;-56
2024/01/10 09:44:55;;;;;;;;;;;;;;;-1.62;44.18;98972.00;5098822;27;19926;-56
2024/01/10 09:47:43;;;;;;;;;;;;;;;-1.12;43.98;98959.81;5101871;27;20005;-54
2024/01/10 09:50:32;;;;;;;;;;;;;;;-1.20;43.56;98968.03;5096738;27;19920;-55
2024/01/10 09:53:22;;;;;;;;;;;;;;;-1.16;43.98;98966.59;5095493;27;19944;-56
2024/01/10 09:56:10;;;;;;;;;;;;;;;-0.96;42.94;98960.34;5097575;27;19924;-55
2024/01/10 09:58:59;;;;;;;;;;;;;;;-1.24;43.74;98960.66;5096594;28;20292;-57
2024/01/10 10:01:49;;;;;;;;;;;;;;;-1.20;43.83;98960.03;5106842;27;19936;-54
2024/01/10 10:04:37;;;;;;;;;;;;;;;-1.08;44.63;98960.19;5099753;27;19927;-55
2024/01/10 10:07:25;;;;;;;;;;;;;;;-0.95;43.84;98959.34;5094081;27;19966;-59
2024/01/10 10:10:15;;;;;;;;;;;;;;;-0.97;44.39;98956.88;5099554;27;19920;-55
2024/01/10 10:13:03;;;;;;;;;;;;;;;-0.73;44.01;98957.19;5092065;28;19972;-55
2024/01/10 10:15:58;;;;;;;;;;;;;;;-0.86;44.45;98952.72;5096754;28;19942;-55
2024/01/10 10:18:47;;;;;;;;;;;;;;;-0.88;43.98;98950.28;5100477;28;19920;-55
2024/01/10 10:21:42;;;;;;;;;;;;;;;-0.86;44.61;98952.72;5101991;28;20272;-55
2024/01/10 10:24:30;;;;;;;;;;;;;;;-0.66;43.98;98949.97;5097536;28;19920;-56
2024/01/10 10:27:18;;;;;;;;;;;;;;;-0.70;43.49;98946.06;5099381;28;20010;-55
2024/01/10 10:30:09;;;;;;;;;;;;;;;-0.51;43.67;98949.69;5102445;28;19920;-56
2024/01/10 10:32:57;;;;;;;;;;;;;;;-0.52;43.54;98951.53;5100118;28;20006;-57
2024/01/10 10:35:47;;;;;;;;;;;;;;;-0.30;43.68;98946.69;5100194;28;19928;-56
2024/01/10 10:38:38;;;;;;;;;;;;;;;-0.44;44.39;98945.94;5097128;28;20006;-58
2024/01/10 10:41:26;;;;;;;;;;;;;;;-0.27;44.35;98940.88;5096716;28;19920;-56
2024/01/10 10:44:15;;;;;;;;;;;;;;;-0.31;44.69;98950.38;5116502;27;19920;-55
2024/01/10 10:47:05;;;;;;;;;;;;;;;-0.23;44.74;98947.44;5096602;28;19920;-55
2024/01/10 10:49:59;;;;;;;;;;;;;;;0.07;44.14;98946.81;5097360;28;19920;-57
2024/01/10 10:52:49;;;;;;;;;;;;;;;0.36;43.80;98948.81;5101499;28;19939;-55
2024/01/10 10:55:38;;;;;;;;;;;;;;;0.53;43.56;98946.38;5113781;27;19920;-55
2024/01/10 10:58:27;;;;;;;;;;;;;;;0.46;43.13;98948.31;5106545;27;19920;-56
2024/01/10 11:01:15;;;;;;;;;;;;;;;0.55;43.54;98955.03;5110966;27;19920;-55
2024/01/10 11:04:04;;;;;;;;;;;;;;;0.59;43.10;98950.88;5112195;27;19931;-55
2024/01/10 11:06:52;;;;;;;;;;;;;;;0.56;43.13;98945.16;5111650;27;20392;-56
2024/01/10 11:09:42;;;;;;;;;;;;;;;0.71;42.99;98945.59;5100753;28;19936;-57
2024/01/10 11:12:36;;;;;;;;;;;;;;;0.73;43.41;98938.16;5110748;28;19926;-56
2024/01/10 11:15:26;;;;;;;;;;;;;;;0.74;43.46;98942.47;5111793;27;20096;-56
2024/01/10 11:18:19;;;;;;;;;;;;;;;0.79;43.47;98938.09;5104980;27;19927;-55
2024/01/10 11:21:12;;;;;;;;;;;;;;;0.69;43.18;98940.50;5109179;27;19923;-56
2024/01/10 11:24:00;;;;;;;;;;;;;;;0.91;43.08;98932.03;5106195;27;19928;-56
2024/01/10 11:26:50;;;;;;;;;;;;;;;0.78;42.47;98932.97;5103225;27;19952;-56
2024/01/10 11:29:39;;;;;;;;;;;;;;;0.59;43.30;98929.47;5100282;28;19920;-55
2024/01/10 11:32:27;;;;;;;;;;;;;;;0.61;43.65;98935.41;5104994;28;19927;-55
2024/01/10 11:35:17;;;;;;;;;;;;;;;0.89;43.44;98924.19;5104110;28;19932;-55
2024/01/10 11:38:05;;;;;;;;;;;;;;;1.00;43.25;98915.41;5100726;28;19920;-55
2024/01/10 11:40:53;;;;;;;;;;;;;;;1.03;43.56;98917.66;5105683;28;19958;-56
2024/01/10 11:43:42;;;;;;;;;;;;;;;0.87;43.36;98918.25;5099418;28;20028;-56
2024/01/10 11:46:31;;;;;;;;;;;;;;;0.97;43.64;98923.09;5106834;28;19931;-57
2024/01/10 11:49:19;;;;;;;;;;;;;;;1.02;43.33;98917.88;5095677;28;20007;-55
2024/01/10 11:52:07;;;;;;;;;;;;;;;1.17;43.27;98904.09;5098085;28;19931;-55
2024/01/10 11:54:56;;;;;;;;;;;;;;;1.28;42.89;98909.50;5097582;28;19920;-56
2024/01/10 11:57:44;;;;;;;;;;;;;;;1.25;42.53;98898.44;5102816;28;19951;-57
2024/01/10 12:00:34;;;;;;;;;;;;;;;1.31;42.95;98897.53;5099501;28;20014;-57
2024/01/10 12:03:22;;;;;;;;;;;;;;;1.45;42.54;98900.84;5109587;27;20257;-55
2024/01/10 12:06:11;;;;;;;;;;;;;;;1.29;42.82;98895.09;5106168;28;20001;-57
2024/01/10 12:09:04;;;;;;;;;;;;;;;1.42;42.93;98896.75;5105660;27;20412;-56
2024/01/10 12:11:52;;;;;;;;;;;;;;;1.47;42.72;98893.38;5107618;27;19950;-57
2024/01/10 12:14:44;;;;;;;;;;;;;;;1.29;42.99;98891.59;5106809;28;19942;-57
2024/01/10 12:17:33;;;;;;;;;;;;;;;1.36;42.55;98891.50;5102951;27;19920;-56
2024/01/10 12:20:22;;;;;;;;;;;;;;;1.37;42.57;98885.91;5110027;28;19974;-56
2024/01/10 12:23:11;;;;;;;;;;;;;;;1.56;42.40;98887.47;5103332;27;20404;-57
2024/01/10 12:26:02;;;;;;;;;;;;;;;1.61;42.29;98880.63;5111787;28;19920;-58
2024/01/10 12:28:59;;;;;;;;;;;;;;;1.54;42.22;98880.72;5098248;27;19920;-56
2024/01/10 12:31:48;;;;;;;;;;;;;;;1.56;41.98;98874.09;5099469;28;20287;-56
2024/01/10 12:34:40;;;;;;;;;;;;;;;1.69;41.87;98878.41;5110294;28;20348;-57
2024/01/10 12:37:28;;;;;;;;;;;;;;;1.73;42.61;98870.75;5110707;28;19920;-56
2024/01/10 12:40:16;;;;;;;;;;;;;;;1.87;42.09;98876.72;5105287;28;19926;-55
2024/01/10 12:43:05;;;;;;;;;;;;;;;1.73;42.48;98876.09;5103376;28;19930;-56
2024/01/10 12:46:03;;;;;;;;;;;;;;;1.84;42.35;98872.63;5098393;28;19931;-57
2024/01/10 12:48:58;;;;;;;;;;;;;;;1.95;42.83;98871.81;5096592;28;20289;-56
2024/01/10 12:51:49;;;;;;;;;;;;;;;2.06;43.25;98879.06;5098465;28;20001;-56
2024/01/10 12:54:37;;;;;;;;;;;;;;;2.08;42.95;98873.47;5100245;28;19920;-57
2024/01/10 12:57:24;;;;;;;;;;;;;;;2.15;42.85;98873.34;5100570;28;20020;-58
2024/01/10 13:00:14;;;;;;;;;;;;;;;2.12;43.42;98882.66;5096337;28;20281;-56
2024/01/10 13:03:03;;;;;;;;;;;;;;;2.31;42.77;98878.00;5097591;28;20438;-58
2024/01/10 13:05:51;;;;;;;;;;;;;;;2.22;43.36;98876.72;5100003;28;19927;-56
2024/01/10 13:08:41;;;;;;;;;;;;;;;2.16;43.27;98869.63;5097918;28;19924;-56
2024/01/10 13:11:31;;;;;;;;;;;;;;;2.40;42.74;98865.03;5110560;27;19926;-56
2024/01/10 13:14:20;;;;;;;;;;;;;;;2.09;42.93;98864.38;5100174;28;19928;-57
2024/01/10 13:17:08;;;;;;;;;;;;;;;2.16;43.37;98873.13;5099893;28;20434;-57
2024/01/10 13:19:58;;;;;;;;;;;;;;;2.29;43.18;98867.53;5105768;28;19934;-57
2024/01/10 13:22:46;;;;;;;;;;;;;;;2.38;43.15;98873.34;5094954;27;19928;-56
2024/01/10 13:25:37;;;;;;;;;;;;;;;2.38;43.18;98867.97;5088677;27;19932;-56
2024/01/10 13:28:25;;;;;;;;;;;;;;;2.36;43.37;98868.22;5104815;27;20404;-56
2024/01/10 13:31:13;;;;;;;;;;;;;;;2.47;43.25;98866.56;5106881;28;19919;-56
2024/01/10 13:34:01;;;;;;;;;;;;;;;2.48;43.08;98878.13;5098349;27;19931;-56
2024/01/10 13:36:49;;;;;;;;;;;;;;;2.41;43.04;98870.19;5107821;27;19927;-56
2024/01/10 13:39:37;;;;;;;;;;;;;;;2.49;42.87;98860.97;5111080;27;19941;-55
2024/01/10 13:42:26;;;;;;;;;;;;;;;2.47;42.99;98869.25;5093193;27;19934;-57
2024/01/10 13:45:15;;;;;;;;;;;;;;;2.48;42.91;98867.38;5108204;27;19930;-56
2024/01/10 13:48:03;;;;;;;;;;;;;;;2.28;43.65;98873.09;5108861;27;19924;-57
2024/01/10 13:50:51;;;;;;;;;;;;;;;2.42;43.45;98869.16;5114130;27;20019;-56
2024/01/10 13:53:39;;;;;;;;;;;;;;;2.42;43.45;98869.16;5101457;28;19924;-56
2024/01/10 13:56:28;;;;;;;;;;;;;;;2.29;43.52;98869.38;5092019;27;19983;-56
2024/01/10 13:59:17;;;;;;;;;;;;;;;2.42;43.12;98866.47;5107044;27;20017;-57
2024/01/10 14:02:06;;;;;;;;;;;;;;;2.40;43.37;98865.03;5103120;28;19920;-56
2024/01/10 14:04:57;;;;;;;;;;;;;;;2.35;43.67;98863.09;5112217;27;19964;-56
2024/01/10 14:07:46;;;;;;;;;;;;;;;2.45;43.01;98863.31;5103748;28;19927;-55
2024/01/10 14:10:34;;;;;;;;;;;;;;;2.45;43.30;98863.31;5100862;27;20529;-58
2024/01/10 14:13:23;;;;;;;;;;;;;;;2.39;43.61;98863.41;5107163;28;19927;-59
2024/01/10 14:16:12;;;;;;;;;;;;;;;2.16;43.65;98865.06;5106804;28;19931;-56
2024/01/10 14:19:01;;;;;;;;;;;;;;;2.25;43.28;98862.88;5100823;28;19920;-58
2024/01/10 14:21:49;;;;;;;;;;;;;;;2.36;43.19;98867.41;5100514;27;19953;-55
2024/01/10 14:24:38;;;;;;;;;;;;;;;2.37;43.48;98871.72;5106108;28;19920;-55
2024/01/10 14:27:26;;;;;;;;;;;;;;;2.32;43.79;98868.91;5106624;28;19943;-56
2024/01/10 14:30:15;;;;;;;;;;;;;;;2.26;43.39;98869.84;5111720;28;19924;-58
2024/01/10 14:33:08;;;;;;;;;;;;;;;2.36;44.11;98873.56;5108536;28;19934;-55
2024/01/10 14:35:56;;;;;;;;;;;;;;;2.41;43.93;98878.25;5100624;28;19924;-57
2024/01/10 14:38:44;;;;;;;;;;;;;;;2.49;43.80;98883.22;5107932;28;20601;-55
2024/01/10 14:41:32;;;;;;;;;;;;;;;2.40;43.30;98890.03;5105498;28;20007;-56
2024/01/10 14:44:20;;;;;;;;;;;;;;;2.26;44.06;98892.13;5103940;28;19963;-56